Time;durP1;ratioP1;P1;durP2;ratioP2;P2;SDS_P1;SDS_P2;PMS_P1;PMS_P2;Temp;Humidity;BMP_temperature;BMP_pressure;BME280_temperature;BME280_humidity;BME280_pressure;Samples;Min_cycle;Max_cycle;Signal;HPM_P1;HPM_P2
2021/08/28 00:01:13;;;;;;;4.13;3.77;;;17.20;41.50;;;;;;10457211;28;20732;-77
2021/08/28 00:06:18;;;;;;;3.70;3.40;;;17.10;41.90;;;;;;10455810;28;20261;-77
2021/08/28 00:11:22;;;;;;;3.83;3.53;;;17.10;41.80;;;;;;10455420;28;20768;-77
2021/08/28 00:16:27;;;;;;;4.13;3.77;;;17.10;41.70;;;;;;10454581;28;20235;-78
2021/08/28 00:21:34;;;;;;;4.40;4.00;;;17.10;41.60;;;;;;10454686;28;20227;-77
2021/08/28 00:26:37;;;;;;;4.00;3.70;;;17.10;41.90;;;;;;10429597;28;20217;-78
2021/08/28 00:31:46;;;;;;;4.50;4.03;;;17.10;41.70;;;;;;10454415;28;20705;-78
2021/08/28 00:36:51;;;;;;;4.13;3.83;;;17.10;42.90;;;;;;10454346;28;20728;-78
2021/08/28 00:41:54;;;;;;;4.00;3.70;;;17.00;42.30;;;;;;10449693;28;20224;-78
2021/08/28 00:46:57;;;;;;;4.23;3.80;;;17.00;41.90;;;;;;10454436;28;20221;-78
2021/08/28 00:52:04;;;;;;;4.20;3.70;;;17.00;42.20;;;;;;10453859;28;20235;-78
2021/08/28 00:57:08;;;;;;;4.17;3.77;;;17.10;42.60;;;;;;10453812;28;20231;-78
2021/08/28 01:02:13;;;;;;;4.20;3.90;;;17.10;42.30;;;;;;10454596;28;20235;-78
2021/08/28 01:07:23;;;;;;;3.80;3.50;;;17.10;42.90;;;;;;10453967;28;20644;-77
2021/08/28 01:12:29;;;;;;;3.97;3.67;;;17.00;43.10;;;;;;10452252;28;20236;-77
2021/08/28 01:17:35;;;;;;;3.93;3.63;;;17.00;42.70;;;;;;10453853;28;20235;-77
2021/08/28 01:22:43;;;;;;;4.17;3.67;;;17.00;43.10;;;;;;10452737;28;20239;-77
2021/08/28 01:27:52;;;;;;;4.17;3.77;;;17.00;43.60;;;;;;10451884;28;20229;-77
2021/08/28 01:32:57;;;;;;;4.07;3.73;;;17.00;43.10;;;;;;10451891;28;20229;-78
2021/08/28 01:38:02;;;;;;;3.97;3.67;;;16.90;43.10;;;;;;10451174;28;20571;-77
2021/08/28 01:43:07;;;;;;;3.90;3.60;;;16.90;43.00;;;;;;10454076;28;20332;-78
2021/08/28 01:48:13;;;;;;;4.00;3.70;;;16.90;43.00;;;;;;10448560;28;20222;-77
2021/08/28 01:53:19;;;;;;;3.83;3.40;;;16.80;43.80;;;;;;10445963;28;20727;-77
2021/08/28 01:58:22;;;;;;;4.10;3.70;;;16.80;42.90;;;;;;10451460;28;20243;-78
2021/08/28 02:03:26;;;;;;;3.57;3.27;;;16.90;43.10;;;;;;10384227;28;20233;-78
2021/08/28 02:08:36;;;;;;;3.90;3.50;;;16.80;43.50;;;;;;10404382;28;20658;-78
2021/08/28 02:13:43;;;;;;;3.80;3.40;;;16.80;44.00;;;;;;10411882;28;20229;-78
2021/08/28 02:18:53;;;;;;;3.50;3.20;;;16.80;43.80;;;;;;10425125;28;20221;-78
2021/08/28 02:24:01;;;;;;;3.40;3.17;;;16.80;44.30;;;;;;10386535;28;20230;-78
2021/08/28 02:29:07;;;;;;;3.73;3.43;;;16.80;44.30;;;;;;10449594;28;20695;-78
2021/08/28 02:34:13;;;;;;;3.53;3.23;;;16.80;43.90;;;;;;10452522;28;20315;-78
2021/08/28 02:39:23;;;;;;;3.70;3.33;;;16.80;44.30;;;;;;10453615;28;20878;-78
2021/08/28 02:44:28;;;;;;;3.77;3.47;;;16.80;44.60;;;;;;10451441;28;20731;-78
2021/08/28 02:49:36;;;;;;;3.53;3.23;;;16.90;44.00;;;;;;10450491;28;20228;-78
2021/08/28 02:54:41;;;;;;;3.57;3.27;;;16.90;44.60;;;;;;10450144;28;20233;-77
2021/08/28 02:59:45;;;;;;;3.80;3.47;;;16.90;44.10;;;;;;10445757;28;20236;-77
2021/08/28 03:04:51;;;;;;;3.13;2.87;;;17.00;43.90;;;;;;10446703;28;20220;-76
2021/08/28 03:09:55;;;;;;;3.20;3.00;;;17.10;44.70;;;;;;10446063;28;20221;-77
2021/08/28 03:14:59;;;;;;;4.97;3.20;;;17.10;43.80;;;;;;10443397;28;20757;-77
2021/08/28 03:20:05;;;;;;;2.57;2.37;;;17.10;43.70;;;;;;10442226;28;20221;-77
2021/08/28 03:25:10;;;;;;;3.10;2.90;;;17.00;44.40;;;;;;10452747;28;20236;-76
2021/08/28 03:30:16;;;;;;;3.07;2.70;;;17.00;44.10;;;;;;10447172;28;20744;-77
2021/08/28 03:35:22;;;;;;;3.43;2.77;;;17.00;44.30;;;;;;10453875;28;20237;-79
2021/08/28 03:40:25;;;;;;;3.10;2.80;;;17.00;44.70;;;;;;10455252;28;20225;-76
2021/08/28 03:45:30;;;;;;;3.10;2.80;;;17.00;44.10;;;;;;10454810;28;20228;-76
2021/08/28 03:50:35;;;;;;;3.10;2.80;;;16.90;44.40;;;;;;10438106;28;20616;-76
2021/08/28 03:55:38;;;;;;;3.00;2.80;;;16.90;44.40;;;;;;10447792;28;20239;-77
2021/08/28 04:00:42;;;;;;;3.20;3.00;;;16.90;44.10;;;;;;10454654;28;20716;-76
2021/08/28 04:05:47;;;;;;;2.93;2.73;;;16.90;44.10;;;;;;10454607;28;20359;-76
2021/08/28 04:10:50;;;;;;;3.00;2.80;;;16.90;44.60;;;;;;10454930;28;20229;-77
2021/08/28 04:15:54;;;;;;;3.20;2.90;;;16.90;44.10;;;;;;10454414;28;20646;-77
2021/08/28 04:20:59;;;;;;;3.60;2.57;;;16.90;44.00;;;;;;10454740;28;20307;-77
2021/08/28 04:26:02;;;;;;;3.00;2.80;;;16.90;44.40;;;;;;10454371;28;20229;-77
2021/08/28 04:31:05;;;;;;;2.67;2.50;;;16.90;44.10;;;;;;10454542;28;20231;-77
2021/08/28 04:36:10;;;;;;;2.67;2.47;;;16.90;44.30;;;;;;10454569;28;20240;-77
2021/08/28 04:41:13;;;;;;;2.80;2.60;;;16.90;44.60;;;;;;10454889;28;20597;-77
2021/08/28 04:46:16;;;;;;;2.77;2.57;;;16.90;44.10;;;;;;10454517;28;20917;-77
2021/08/28 04:51:21;;;;;;;2.50;2.30;;;16.90;44.10;;;;;;10454111;28;20225;-77
2021/08/28 04:56:24;;;;;;;2.23;2.07;;;16.90;44.40;;;;;;10453713;28;20229;-77
2021/08/28 05:01:28;;;;;;;1.90;1.77;;;16.90;43.90;;;;;;10453468;28;20692;-77
2021/08/28 05:06:33;;;;;;;1.50;1.40;;;16.90;43.90;;;;;;10453758;28;20647;-76
2021/08/28 05:11:39;;;;;;;1.90;1.80;;;16.90;44.40;;;;;;10452637;28;20805;-76
2021/08/28 05:16:42;;;;;;;1.80;1.70;;;16.80;44.10;;;;;;10443476;28;20229;-77
2021/08/28 05:21:47;;;;;;;1.80;1.60;;;16.90;44.20;;;;;;10411309;28;20230;-77
2021/08/28 05:26:50;;;;;;;1.80;1.70;;;16.80;44.80;;;;;;10446606;28;20578;-77
2021/08/28 05:31:54;;;;;;;1.57;1.47;;;16.80;44.20;;;;;;10453012;28;20324;-77
2021/08/28 05:36:58;;;;;;;1.50;1.40;;;16.80;44.10;;;;;;10455419;28;20225;-77
2021/08/28 05:42:01;;;;;;;1.43;1.33;;;16.80;44.60;;;;;;10453472;28;20871;-77
2021/08/28 05:47:04;;;;;;;2.17;2.07;;;16.80;44.40;;;;;;10452896;28;20224;-77
2021/08/28 05:52:09;;;;;;;2.23;2.00;;;16.80;44.50;;;;;;10454429;28;20239;-77
2021/08/28 05:57:12;;;;;;;2.37;2.17;;;16.80;45.10;;;;;;10456759;28;20356;-77
2021/08/28 06:02:26;;;;;;;2.00;1.90;;;16.80;44.50;;;;;;10455435;28;20864;-77
2021/08/28 06:07:37;;;;;;;2.07;1.97;;;16.80;45.90;;;;;;10449874;28;20835;-77
2021/08/28 06:12:46;;;;;;;2.30;2.20;;;16.80;45.90;;;;;;10455384;28;20233;-78
2021/08/28 06:17:59;;;;;;;2.30;2.20;;;16.80;45.90;;;;;;10451920;28;20240;-77
2021/08/28 06:23:04;;;;;;;2.50;2.30;;;16.90;46.00;;;;;;10419534;28;20231;-78
2021/08/28 06:28:07;;;;;;;3.67;2.30;;;16.90;45.50;;;;;;10403674;28;20217;-77
2021/08/28 06:33:10;;;;;;;2.43;2.33;;;16.90;45.20;;;;;;10410953;28;20230;-76
2021/08/28 06:38:15;;;;;;;3.10;2.80;;;16.90;45.50;;;;;;10420458;28;20233;-77
2021/08/28 06:43:18;;;;;;;2.80;2.60;;;16.90;46.00;;;;;;10439582;28;20229;-77
2021/08/28 06:48:21;;;;;;;2.53;2.43;;;16.90;45.50;;;;;;10443824;28;20236;-77
2021/08/28 06:53:26;;;;;;;2.90;2.70;;;16.90;45.70;;;;;;10428252;28;20229;-77
2021/08/28 06:58:29;;;;;;;2.80;2.50;;;16.90;46.00;;;;;;10421102;28;20233;-77
2021/08/28 07:03:32;;;;;;;2.50;2.40;;;16.90;46.00;;;;;;10429475;28;20231;-77
2021/08/28 07:08:37;;;;;;;2.07;1.97;;;16.90;46.00;;;;;;10429488;28;20831;-77
2021/08/28 07:13:40;;;;;;;2.13;2.03;;;17.00;46.10;;;;;;10439966;28;20222;-76
2021/08/28 07:18:44;;;;;;;1.70;1.60;;;17.00;46.10;;;;;;10446065;28;20228;-77
2021/08/28 07:23:50;;;;;;;1.57;1.47;;;17.10;46.20;;;;;;10447612;28;20329;-77
2021/08/28 07:28:53;;;;;;;1.57;1.47;;;17.20;46.30;;;;;;10449159;28;20701;-78
2021/08/28 07:33:58;;;;;;;1.80;1.70;;;17.30;45.50;;;;;;10442324;28;20235;-78
2021/08/28 07:39:05;;;;;;;1.83;1.73;;;17.30;45.70;;;;;;10451486;28;20221;-78
2021/08/28 07:44:09;;;;;;;1.60;1.50;;;17.30;46.20;;;;;;10438934;28;20225;-77
2021/08/28 07:49:13;;;;;;;1.40;1.30;;;17.20;45.90;;;;;;10407556;28;20650;-77
2021/08/28 07:54:18;;;;;;;1.20;1.20;;;17.30;46.20;;;;;;10402737;28;20238;-77
2021/08/28 07:59:22;;;;;;;1.30;1.30;;;17.30;46.30;;;;;;10393380;28;20234;-77
2021/08/28 08:04:26;;;;;;;1.43;1.33;;;17.40;45.50;;;;;;10416883;28;20233;-77
2021/08/28 08:09:31;;;;;;;1.67;1.57;;;17.50;46.10;;;;;;10435909;28;20226;-77
2021/08/28 08:14:35;;;;;;;1.40;1.30;;;17.50;46.20;;;;;;10425529;28;20234;-78
2021/08/28 08:19:38;;;;;;;1.50;1.40;;;17.60;45.70;;;;;;10424641;28;20236;-77
2021/08/28 08:24:43;;;;;;;1.10;1.10;;;17.60;45.50;;;;;;10437863;28;20599;-78
2021/08/28 08:29:46;;;;;;;2.20;1.20;;;17.60;45.50;;;;;;10429846;28;20229;-77
2021/08/28 08:34:53;;;;;;;1.10;1.00;;;17.70;45.90;;;;;;10440005;28;20339;-77
2021/08/28 08:39:58;;;;;;;1.10;1.10;;;17.80;45.60;;;;;;10435476;28;20225;-77
2021/08/28 08:45:01;;;;;;;1.30;1.30;;;17.90;45.20;;;;;;10440759;28;20231;-77
2021/08/28 08:50:05;;;;;;;1.00;1.00;;;17.90;45.00;;;;;;10450951;28;20246;-78
2021/08/28 08:55:10;;;;;;;1.10;1.10;;;18.00;45.50;;;;;;10449903;28;20223;-77
2021/08/28 09:00:16;;;;;;;1.00;1.00;;;18.00;45.10;;;;;;10449585;28;20243;-77
2021/08/28 09:05:19;;;;;;;1.30;1.20;;;18.10;46.10;;;;;;10450795;28;20709;-78
2021/08/28 09:10:26;;;;;;;1.20;1.20;;;18.20;45.30;;;;;;10448867;28;20225;-77
2021/08/28 09:15:41;;;;;;;1.00;1.00;;;18.30;45.50;;;;;;10427149;28;20229;-77
2021/08/28 09:20:45;;;;;;;1.00;1.00;;;18.40;44.90;;;;;;10440905;28;20231;-77
2021/08/28 09:25:53;;;;;;;1.00;1.00;;;18.40;44.90;;;;;;10440641;28;20239;-78
2021/08/28 09:31:02;;;;;;;0.90;0.90;;;18.50;45.80;;;;;;10434133;28;20581;-78
2021/08/28 09:36:05;;;;;;;0.90;0.90;;;18.50;45.20;;;;;;10436393;28;20308;-78
2021/08/28 09:41:11;;;;;;;1.00;1.00;;;18.70;45.00;;;;;;10425440;28;20616;-78
2021/08/28 09:46:23;;;;;;;1.10;1.00;;;18.80;44.40;;;;;;10448113;28;20225;-77
2021/08/28 09:51:33;;;;;;;1.00;1.00;;;18.90;44.40;;;;;;10435160;28;20249;-77
2021/08/28 09:56:41;;;;;;;1.07;1.03;;;19.10;44.10;;;;;;10436434;28;20705;-78
2021/08/28 10:01:47;;;;;;;1.03;0.90;;;19.30;43.20;;;;;;10448588;28;20304;-77
2021/08/28 10:06:52;;;;;;;0.80;0.80;;;19.50;43.00;;;;;;10444754;28;20223;-79
2021/08/28 10:11:57;;;;;;;0.70;0.70;;;19.60;41.90;;;;;;10445037;28;20229;-78
2021/08/28 10:17:00;;;;;;;0.80;0.80;;;19.50;41.90;;;;;;10441436;28;20236;-77
2021/08/28 10:22:12;;;;;;;1.37;0.70;;;19.50;41.60;;;;;;10437338;28;20231;-77
2021/08/28 10:27:17;;;;;;;0.70;0.70;;;19.40;40.80;;;;;;10411375;28;20272;-77
2021/08/28 10:32:36;;;;;;;0.80;0.80;;;19.30;41.70;;;;;;10441890;28;20243;-77
2021/08/28 10:37:46;;;;;;;0.80;0.80;;;19.30;42.40;;;;;;10434410;28;20632;-77
2021/08/28 10:43:01;;;;;;;0.80;0.80;;;19.30;40.80;;;;;;10440761;28;20225;-78
2021/08/28 10:48:08;;;;;;;0.80;0.80;;;19.40;41.00;;;;;;10445907;28;20778;-78
2021/08/28 10:53:13;;;;;;;0.90;0.90;;;19.50;41.50;;;;;;10405919;28;20715;-78
2021/08/28 10:58:19;;;;;;;0.80;0.80;;;19.60;41.40;;;;;;10439253;28;20231;-78
2021/08/28 11:03:26;;;;;;;0.90;0.90;;;19.70;41.10;;;;;;10444462;28;20229;-77
2021/08/28 11:08:46;;;;;;;0.80;0.80;;;19.70;41.10;;;;;;10416743;28;20303;-77
2021/08/28 11:14:00;;;;;;;0.90;0.90;;;19.80;40.50;;;;;;10421798;28;20325;-77
2021/08/28 11:19:05;;;;;;;1.00;1.00;;;19.80;41.00;;;;;;10433475;28;20307;-77
2021/08/28 11:24:16;;;;;;;1.23;1.17;;;19.80;41.10;;;;;;10446035;28;20267;-76
2021/08/28 11:29:24;;;;;;;0.90;0.90;;;19.70;40.90;;;;;;10432218;28;20252;-77
2021/08/28 11:34:30;;;;;;;0.90;0.90;;;19.70;40.70;;;;;;10419524;28;20252;-76
2021/08/28 11:39:45;;;;;;;0.90;0.90;;;19.70;41.80;;;;;;10449757;28;20600;-75
2021/08/28 11:44:51;;;;;;;0.90;0.90;;;19.70;41.60;;;;;;10453543;28;20239;-76
2021/08/28 11:49:55;;;;;;;0.80;0.80;;;19.70;41.60;;;;;;10453664;28;20572;-76
2021/08/28 11:55:00;;;;;;;1.00;1.00;;;19.70;41.40;;;;;;10447529;28;20255;-76
2021/08/28 12:00:07;;;;;;;1.10;1.10;;;19.70;41.90;;;;;;10450270;28;20296;-76
2021/08/28 12:05:12;;;;;;;0.87;0.87;;;19.70;41.80;;;;;;10447973;28;20260;-76
2021/08/28 12:10:16;;;;;;;1.10;1.00;;;19.80;41.60;;;;;;10436162;28;20229;-75
2021/08/28 12:15:23;;;;;;;0.90;0.90;;;19.80;41.40;;;;;;10452853;28;20237;-75
2021/08/28 12:20:28;;;;;;;0.87;0.87;;;19.90;40.80;;;;;;10442307;28;20228;-76
2021/08/28 12:25:33;;;;;;;0.97;0.97;;;19.80;41.20;;;;;;10450359;28;20777;-76
2021/08/28 12:30:38;;;;;;;1.00;1.00;;;19.80;41.20;;;;;;10447511;28;20761;-76
2021/08/28 12:35:41;;;;;;;1.50;1.40;;;19.90;40.70;;;;;;10450036;28;20228;-76
2021/08/28 12:40:44;;;;;;;1.40;1.30;;;19.90;41.20;;;;;;10448622;28;20240;-76
2021/08/28 12:45:50;;;;;;;1.83;1.30;;;19.90;41.00;;;;;;10446725;28;20774;-76
2021/08/28 12:51:09;;;;;;;1.77;1.63;;;20.00;40.90;;;;;;10437716;28;20223;-76
2021/08/28 12:56:13;;;;;;;1.40;1.30;;;20.00;38.10;;;;;;10448969;28;20229;-76
2021/08/28 13:01:17;;;;;;;1.40;1.30;;;20.00;39.60;;;;;;10441891;28;20713;-76
2021/08/28 13:06:21;;;;;;;1.80;1.70;;;20.00;39.90;;;;;;10446475;28;20224;-76
2021/08/28 13:11:26;;;;;;;2.50;1.47;;;20.00;40.40;;;;;;10443812;28;21084;-76
2021/08/28 13:16:31;;;;;;;3.13;1.53;;;20.10;39.40;;;;;;10442437;28;20229;-76
2021/08/28 13:21:39;;;;;;;1.80;1.70;;;20.10;39.70;;;;;;10441022;28;20286;-76
2021/08/28 13:27:01;;;;;;;1.50;1.37;;;20.20;39.40;;;;;;10437347;28;20229;-75
2021/08/28 13:32:08;;;;;;;2.43;1.80;;;20.20;36.70;;;;;;10440256;28;20225;-75
2021/08/28 13:37:12;;;;;;;1.60;1.50;;;20.30;38.40;;;;;;10443327;28;20578;-75
2021/08/28 13:42:20;;;;;;;1.70;1.60;;;20.40;39.30;;;;;;10440951;28;20237;-74
2021/08/28 13:47:25;;;;;;;2.17;1.47;;;20.50;37.80;;;;;;10440039;28;20229;-75
2021/08/28 13:52:28;;;;;;;1.20;1.10;;;20.50;37.10;;;;;;10436982;28;20243;-75
2021/08/28 13:57:32;;;;;;;1.47;1.37;;;20.50;37.90;;;;;;10440465;28;20240;-75
2021/08/28 14:02:36;;;;;;;1.53;1.40;;;20.40;37.60;;;;;;10442986;28;20725;-75
2021/08/28 14:07:41;;;;;;;1.17;1.17;;;20.30;38.00;;;;;;10440078;28;20231;-75
2021/08/28 14:12:45;;;;;;;1.37;1.27;;;20.20;38.40;;;;;;10441592;28;20229;-75
2021/08/28 14:17:50;;;;;;;1.40;1.30;;;20.10;38.70;;;;;;10441029;28;20693;-76
2021/08/28 14:22:53;;;;;;;1.30;1.20;;;20.00;38.70;;;;;;10438361;28;20227;-75
2021/08/28 14:27:56;;;;;;;1.20;1.20;;;20.00;39.20;;;;;;10441070;28;20739;-75
2021/08/28 14:33:01;;;;;;;1.23;1.13;;;20.00;39.50;;;;;;10437923;28;20735;-74
2021/08/28 14:38:04;;;;;;;1.13;1.10;;;20.00;39.30;;;;;;10440262;28;20330;-75
2021/08/28 14:43:08;;;;;;;1.20;1.10;;;20.00;39.60;;;;;;10438548;28;20232;-75
2021/08/28 14:48:12;;;;;;;1.10;1.10;;;20.10;39.30;;;;;;10439919;28;20228;-76
2021/08/28 14:53:16;;;;;;;1.00;1.00;;;20.10;39.10;;;;;;10440977;28;20235;-75
2021/08/28 14:58:19;;;;;;;1.50;1.40;;;20.20;39.20;;;;;;10438024;28;20946;-76
2021/08/28 15:03:23;;;;;;;1.20;1.20;;;20.10;38.40;;;;;;10440205;28;20848;-75
2021/08/28 15:08:26;;;;;;;1.37;1.27;;;20.00;38.70;;;;;;10439521;28;20220;-75
2021/08/28 15:13:31;;;;;;;1.57;1.20;;;19.80;39.00;;;;;;10434859;28;20229;-75
2021/08/28 15:18:36;;;;;;;1.20;1.10;;;19.70;39.30;;;;;;10447064;28;20233;-76
2021/08/28 15:23:39;;;;;;;1.00;1.00;;;19.60;39.00;;;;;;10444778;28;20248;-76
2021/08/28 15:28:43;;;;;;;1.00;1.00;;;19.60;38.90;;;;;;10447671;28;20904;-76
2021/08/28 15:33:47;;;;;;;1.00;1.00;;;19.50;38.90;;;;;;10449868;28;20232;-76
2021/08/28 15:38:50;;;;;;;1.20;1.20;;;19.50;39.40;;;;;;10444975;28;20224;-77
2021/08/28 15:43:54;;;;;;;1.47;1.10;;;19.50;39.80;;;;;;10446986;28;20739;-76
2021/08/28 15:48:58;;;;;;;1.47;1.10;;;19.60;39.30;;;;;;10443290;28;20217;-77
2021/08/28 15:54:01;;;;;;;1.47;1.00;;;19.50;39.40;;;;;;10444708;28;20229;-76
2021/08/28 15:59:05;;;;;;;0.90;0.90;;;19.40;39.60;;;;;;10447596;28;20217;-76
2021/08/28 16:04:09;;;;;;;1.00;1.00;;;19.30;39.50;;;;;;10448251;28;20331;-76
2021/08/28 16:09:13;;;;;;;1.90;1.40;;;19.30;39.80;;;;;;10448342;28;20229;-76
2021/08/28 16:14:16;;;;;;;1.20;1.20;;;19.20;40.80;;;;;;10442743;28;20729;-76
2021/08/28 16:19:21;;;;;;;1.10;1.10;;;19.10;40.10;;;;;;10445237;28;20235;-76
2021/08/28 16:24:24;;;;;;;1.23;1.13;;;19.20;40.10;;;;;;10448091;28;20239;-76
2021/08/28 16:29:27;;;;;;;1.10;1.10;;;19.10;40.20;;;;;;10446232;28;20234;-76
2021/08/28 16:34:32;;;;;;;1.10;1.10;;;19.10;41.00;;;;;;10443853;28;20748;-77
2021/08/28 16:39:36;;;;;;;1.10;1.00;;;19.10;40.00;;;;;;10444674;28;20600;-76
2021/08/28 16:44:40;;;;;;;1.13;1.03;;;19.10;40.30;;;;;;10443655;28;20228;-76
2021/08/28 16:49:45;;;;;;;0.97;0.97;;;19.10;40.10;;;;;;10446048;28;20232;-76
2021/08/28 16:54:49;;;;;;;1.10;1.00;;;19.10;40.20;;;;;;10442617;28;20725;-77
2021/08/28 16:59:52;;;;;;;1.10;1.10;;;19.10;40.40;;;;;;10445324;28;20229;-76
2021/08/28 17:04:57;;;;;;;1.00;1.00;;;19.10;40.40;;;;;;10443322;28;20217;-76
2021/08/28 17:10:01;;;;;;;1.00;1.00;;;19.10;40.70;;;;;;10444112;28;20217;-76
2021/08/28 17:15:05;;;;;;;1.80;1.70;;;19.20;40.30;;;;;;10439371;28;20231;-77
2021/08/28 17:20:10;;;;;;;1.50;1.40;;;19.10;40.20;;;;;;10440675;28;20235;-76
2021/08/28 17:25:14;;;;;;;1.40;1.30;;;19.20;40.40;;;;;;10444036;28;20232;-77
2021/08/28 17:30:17;;;;;;;1.00;1.00;;;19.10;40.50;;;;;;10442900;28;20231;-77
2021/08/28 17:35:21;;;;;;;1.10;1.10;;;19.10;40.50;;;;;;10444043;28;20251;-77
2021/08/28 17:40:25;;;;;;;1.00;1.00;;;19.10;40.60;;;;;;10441732;28;20234;-76
2021/08/28 17:45:28;;;;;;;1.10;0.90;;;19.10;39.80;;;;;;10440320;28;20233;-77
2021/08/28 17:50:33;;;;;;;2.20;0.83;;;19.10;39.80;;;;;;10443299;28;20236;-76
2021/08/28 17:55:36;;;;;;;1.73;1.03;;;19.10;39.60;;;;;;10442509;28;20717;-76
2021/08/28 18:00:39;;;;;;;1.20;1.20;;;19.00;39.50;;;;;;10439311;28;20233;-77
2021/08/28 18:05:44;;;;;;;1.00;1.00;;;19.00;39.60;;;;;;10435824;28;21171;-76
2021/08/28 18:10:47;;;;;;;1.77;1.30;;;19.00;40.00;;;;;;10435070;28;20224;-77
2021/08/28 18:15:51;;;;;;;2.50;1.13;;;19.00;40.10;;;;;;10437801;28;20279;-77
2021/08/28 18:20:55;;;;;;;1.10;1.10;;;18.90;40.00;;;;;;10435881;28;20236;-77
2021/08/28 18:25:58;;;;;;;1.50;1.30;;;18.80;40.20;;;;;;10434419;28;20228;-77
2021/08/28 18:31:02;;;;;;;1.40;1.30;;;18.70;40.30;;;;;;10434510;28;20229;-77
2021/08/28 18:36:08;;;;;;;1.30;1.20;;;18.60;40.40;;;;;;10435325;28;20229;-77
2021/08/28 18:41:11;;;;;;;1.43;1.37;;;18.50;40.70;;;;;;10431863;28;20232;-77
2021/08/28 18:46:15;;;;;;;1.13;1.10;;;18.40;40.40;;;;;;10445292;28;20689;-77
2021/08/28 18:51:19;;;;;;;1.60;1.50;;;18.30;40.60;;;;;;10435448;28;20222;-77
2021/08/28 18:56:23;;;;;;;1.50;1.40;;;18.20;40.80;;;;;;10438499;28;20316;-77
2021/08/28 19:01:27;;;;;;;1.30;1.23;;;18.10;40.90;;;;;;10439296;28;20229;-77
2021/08/28 19:06:32;;;;;;;1.70;1.60;;;18.10;41.00;;;;;;10440018;28;20272;-77
2021/08/28 19:11:46;;;;;;;2.37;1.63;;;18.10;41.10;;;;;;10441205;28;20244;-77
2021/08/28 19:16:50;;;;;;;2.00;1.30;;;18.00;40.90;;;;;;10441347;28;20223;-77
2021/08/28 19:21:54;;;;;;;3.03;1.50;;;18.00;40.90;;;;;;10441419;28;20225;-77
2021/08/28 19:26:58;;;;;;;1.60;1.50;;;17.90;41.00;;;;;;10441446;28;20658;-77
2021/08/28 19:32:02;;;;;;;1.50;1.40;;;17.80;41.00;;;;;;10436413;28;20217;-76
2021/08/28 19:37:06;;;;;;;1.57;1.47;;;17.80;41.00;;;;;;10438502;28;20224;-76
2021/08/28 19:42:10;;;;;;;1.87;1.77;;;17.70;41.10;;;;;;10440217;28;20751;-77
2021/08/28 19:47:13;;;;;;;2.30;2.10;;;17.60;41.00;;;;;;10438145;28;20231;-78
2021/08/28 19:52:18;;;;;;;1.60;1.50;;;17.50;41.10;;;;;;10439622;28;20237;-77
2021/08/28 19:57:21;;;;;;;1.83;1.73;;;17.40;41.30;;;;;;10434886;28;20225;-76
2021/08/28 20:02:25;;;;;;;1.60;1.50;;;17.40;41.40;;;;;;10440034;28;20240;-77
2021/08/28 20:07:30;;;;;;;1.80;1.40;;;17.30;41.40;;;;;;10448806;28;20228;-77
2021/08/28 20:12:33;;;;;;;1.70;1.60;;;17.30;41.70;;;;;;10449801;28;20247;-78
2021/08/28 20:17:37;;;;;;;2.00;1.50;;;17.30;41.60;;;;;;10449660;28;20824;-77
2021/08/28 20:22:41;;;;;;;1.50;1.40;;;17.30;41.60;;;;;;10448978;28;20233;-77
2021/08/28 20:27:44;;;;;;;1.77;1.53;;;17.30;41.90;;;;;;10447600;28;20579;-77
2021/08/28 20:32:48;;;;;;;1.90;1.80;;;17.30;41.70;;;;;;10445534;28;20225;-77
2021/08/28 20:37:52;;;;;;;1.70;1.60;;;17.30;41.70;;;;;;10450918;28;20229;-77
2021/08/28 20:42:56;;;;;;;1.80;1.57;;;17.20;42.00;;;;;;10449504;28;20324;-77
2021/08/28 20:47:59;;;;;;;3.27;1.80;;;17.10;42.00;;;;;;10449174;28;20225;-77
2021/08/28 20:53:04;;;;;;;1.77;1.67;;;17.00;42.20;;;;;;10448331;28;20221;-77
2021/08/28 20:58:07;;;;;;;2.77;1.83;;;17.00;42.40;;;;;;10445913;28;20221;-77
2021/08/28 21:03:10;;;;;;;2.57;2.20;;;17.00;42.20;;;;;;10446288;28;20258;-77
2021/08/28 21:08:15;;;;;;;2.03;1.83;;;16.90;42.30;;;;;;10448912;28;20229;-77
2021/08/28 21:13:18;;;;;;;1.80;1.70;;;16.90;42.50;;;;;;10442184;28;20225;-77
2021/08/28 21:18:21;;;;;;;1.97;1.87;;;16.90;42.40;;;;;;10447393;28;20232;-77
2021/08/28 21:23:26;;;;;;;2.10;1.87;;;16.90;42.50;;;;;;10448400;28;20221;-77
2021/08/28 21:28:29;;;;;;;2.17;2.00;;;16.90;42.90;;;;;;10445209;28;20221;-77
2021/08/28 21:33:32;;;;;;;2.33;2.10;;;17.00;42.60;;;;;;10446969;28;20227;-77
2021/08/28 21:38:37;;;;;;;2.10;2.00;;;17.00;42.60;;;;;;10444368;28;20227;-77
2021/08/28 21:43:41;;;;;;;2.03;1.93;;;16.90;42.70;;;;;;10442292;28;20242;-77
2021/08/28 21:48:44;;;;;;;2.33;2.13;;;16.90;42.50;;;;;;10443961;28;20225;-77
2021/08/28 21:53:49;;;;;;;2.10;1.90;;;16.90;42.70;;;;;;10442599;28;20243;-77
2021/08/28 21:58:52;;;;;;;2.37;2.17;;;16.80;42.90;;;;;;10442986;28;20880;-76
2021/08/28 22:03:56;;;;;;;2.63;2.43;;;16.80;42.70;;;;;;10443506;28;20237;-77
2021/08/28 22:09:01;;;;;;;2.40;2.30;;;16.70;42.80;;;;;;10441751;28;20232;-77
2021/08/28 22:14:04;;;;;;;2.67;2.07;;;16.70;43.10;;;;;;10441414;28;20224;-77
2021/08/28 22:19:07;;;;;;;2.00;1.90;;;16.70;43.00;;;;;;10441538;28;20225;-76
2021/08/28 22:24:12;;;;;;;2.37;2.17;;;16.70;43.00;;;;;;10439996;28;20911;-77
2021/08/28 22:29:15;;;;;;;2.33;2.13;;;16.70;43.20;;;;;;10439267;28;20232;-77
2021/08/28 22:34:18;;;;;;;2.20;1.97;;;16.70;42.70;;;;;;10442128;28;20751;-76
2021/08/28 22:39:23;;;;;;;2.27;2.10;;;16.60;42.70;;;;;;10434325;28;20892;-77
2021/08/28 22:44:29;;;;;;;1.90;1.80;;;16.50;43.10;;;;;;10439500;28;20244;-77
2021/08/28 22:49:32;;;;;;;2.60;1.80;;;16.50;43.10;;;;;;10440449;28;20232;-77
2021/08/28 22:54:38;;;;;;;2.17;2.07;;;16.50;43.10;;;;;;10442463;28;20246;-77
2021/08/28 22:59:42;;;;;;;1.83;1.73;;;16.50;43.30;;;;;;10440487;28;20236;-76
2021/08/28 23:04:45;;;;;;;1.90;1.80;;;16.50;43.10;;;;;;10436118;28;20255;-77
2021/08/28 23:09:51;;;;;;;2.43;1.53;;;16.50;43.10;;;;;;10437917;28;20221;-77
2021/08/28 23:14:54;;;;;;;2.40;1.77;;;16.50;43.30;;;;;;10439310;28;20241;-77
2021/08/28 23:19:57;;;;;;;1.60;1.50;;;16.50;42.90;;;;;;10440520;28;20221;-77
2021/08/28 23:25:02;;;;;;;1.90;1.63;;;16.50;43.00;;;;;;10439739;28;20236;-77
2021/08/28 23:30:07;;;;;;;1.40;1.40;;;16.50;43.20;;;;;;10435479;28;20224;-77
2021/08/28 23:35:11;;;;;;;1.83;1.73;;;16.40;43.10;;;;;;10431281;28;20327;-77
2021/08/28 23:40:16;;;;;;;1.60;1.50;;;16.40;43.10;;;;;;10445896;28;20256;-77
2021/08/28 23:45:19;;;;;;;1.50;1.40;;;16.30;43.30;;;;;;10445615;28;20758;-77
2021/08/28 23:50:22;;;;;;;1.70;1.60;;;16.20;43.20;;;;;;10448238;28;20713;-77
2021/08/28 23:55:27;;;;;;;1.80;1.70;;;16.20;43.30;;;;;;10449620;28;20233;-77
